sensor_id;sensor_type;location;lat;lon;timestamp;temperature;humidity
29501;DHT22;16450;50.288;10.966;2023-06-04T00:02:15;14.30;40.10
29501;DHT22;16450;50.288;10.966;2023-06-04T00:05:18;14.20;40.30
29501;DHT22;16450;50.288;10.966;2023-06-04T00:08:20;14.10;40.30
29501;DHT22;16450;50.288;10.966;2023-06-04T00:11:22;14.10;40.40
29501;DHT22;16450;50.288;10.966;2023-06-04T00:14:25;14.00;40.50
29501;DHT22;16450;50.288;10.966;2023-06-04T00:17:29;14.00;40.50
29501;DHT22;16450;50.288;10.966;2023-06-04T00:20:31;13.90;40.60
29501;DHT22;16450;50.288;10.966;2023-06-04T00:23:33;13.80;40.70
29501;DHT22;16450;50.288;10.966;2023-06-04T00:26:35;13.70;40.90
29501;DHT22;16450;50.288;10.966;2023-06-04T00:29:37;13.70;41.00
29501;DHT22;16450;50.288;10.966;2023-06-04T00:32:39;13.70;41.00
29501;DHT22;16450;50.288;10.966;2023-06-04T00:35:42;13.60;41.20
29501;DHT22;16450;50.288;10.966;2023-06-04T00:38:44;13.50;41.30
29501;DHT22;16450;50.288;10.966;2023-06-04T00:41:46;13.50;41.40
29501;DHT22;16450;50.288;10.966;2023-06-04T00:44:48;13.40;41.60
29501;DHT22;16450;50.288;10.966;2023-06-04T00:47:50;13.30;41.60
29501;DHT22;16450;50.288;10.966;2023-06-04T00:50:53;13.20;41.60
29501;DHT22;16450;50.288;10.966;2023-06-04T00:53:55;13.20;41.70
29501;DHT22;16450;50.288;10.966;2023-06-04T00:56:57;13.10;41.60
29501;DHT22;16450;50.288;10.966;2023-06-04T00:59:59;13.10;41.60
29501;DHT22;16450;50.288;10.966;2023-06-04T01:03:03;13.00;41.80
29501;DHT22;16450;50.288;10.966;2023-06-04T01:06:25;13.00;42.20
29501;DHT22;16450;50.288;10.966;2023-06-04T01:09:31;12.90;42.70
29501;DHT22;16450;50.288;10.966;2023-06-04T01:12:34;12.90;42.40
29501;DHT22;16450;50.288;10.966;2023-06-04T01:15:36;12.90;42.50
29501;DHT22;16450;50.288;10.966;2023-06-04T01:18:39;12.80;42.50
29501;DHT22;16450;50.288;10.966;2023-06-04T01:21:45;12.80;42.70
29501;DHT22;16450;50.288;10.966;2023-06-04T01:24:53;12.70;42.90
29501;DHT22;16450;50.288;10.966;2023-06-04T01:27:57;12.70;43.00
29501;DHT22;16450;50.288;10.966;2023-06-04T01:31:01;12.60;42.90
29501;DHT22;16450;50.288;10.966;2023-06-04T01:34:07;12.60;43.10
29501;DHT22;16450;50.288;10.966;2023-06-04T01:37:09;12.50;43.10
29501;DHT22;16450;50.288;10.966;2023-06-04T01:40:13;12.50;43.10
29501;DHT22;16450;50.288;10.966;2023-06-04T01:43:16;12.40;43.20
29501;DHT22;16450;50.288;10.966;2023-06-04T01:46:18;12.40;43.30
29501;DHT22;16450;50.288;10.966;2023-06-04T01:49:26;12.30;43.50
29501;DHT22;16450;50.288;10.966;2023-06-04T01:52:28;12.30;44.00
29501;DHT22;16450;50.288;10.966;2023-06-04T01:55:31;12.20;43.70
29501;DHT22;16450;50.288;10.966;2023-06-04T01:58:35;12.10;43.80
29501;DHT22;16450;50.288;10.966;2023-06-04T02:01:38;12.10;44.00
29501;DHT22;16450;50.288;10.966;2023-06-04T02:04:41;12.00;44.70
29501;DHT22;16450;50.288;10.966;2023-06-04T02:07:45;11.90;44.20
29501;DHT22;16450;50.288;10.966;2023-06-04T02:10:48;12.00;44.50
29501;DHT22;16450;50.288;10.966;2023-06-04T02:13:50;11.90;44.30
29501;DHT22;16450;50.288;10.966;2023-06-04T02:16:52;11.80;44.30
29501;DHT22;16450;50.288;10.966;2023-06-04T02:19:56;11.80;44.50
29501;DHT22;16450;50.288;10.966;2023-06-04T02:22:58;11.80;44.60
29501;DHT22;16450;50.288;10.966;2023-06-04T02:26:00;11.70;44.70
29501;DHT22;16450;50.288;10.966;2023-06-04T02:29:02;11.70;44.80
29501;DHT22;16450;50.288;10.966;2023-06-04T02:32:07;11.70;44.80
29501;DHT22;16450;50.288;10.966;2023-06-04T02:35:10;11.60;44.90
29501;DHT22;16450;50.288;10.966;2023-06-04T02:38:12;11.60;45.50
29501;DHT22;16450;50.288;10.966;2023-06-04T02:41:14;11.50;44.90
29501;DHT22;16450;50.288;10.966;2023-06-04T02:44:17;11.50;45.00
29501;DHT22;16450;50.288;10.966;2023-06-04T02:47:19;11.50;45.20
29501;DHT22;16450;50.288;10.966;2023-06-04T02:50:21;11.40;45.30
29501;DHT22;16450;50.288;10.966;2023-06-04T02:53:24;11.30;45.40
29501;DHT22;16450;50.288;10.966;2023-06-04T02:56:25;11.30;45.40
29501;DHT22;16450;50.288;10.966;2023-06-04T02:59:28;11.30;45.50
29501;DHT22;16450;50.288;10.966;2023-06-04T03:02:30;11.20;45.50
29501;DHT22;16450;50.288;10.966;2023-06-04T03:05:32;11.20;45.70
29501;DHT22;16450;50.288;10.966;2023-06-04T03:08:35;11.10;45.90
29501;DHT22;16450;50.288;10.966;2023-06-04T03:11:37;11.00;46.00
29501;DHT22;16450;50.288;10.966;2023-06-04T03:14:39;11.10;46.30
29501;DHT22;16450;50.288;10.966;2023-06-04T03:17:42;11.00;46.30
29501;DHT22;16450;50.288;10.966;2023-06-04T03:20:44;10.90;46.40
29501;DHT22;16450;50.288;10.966;2023-06-04T03:23:47;10.90;46.50
29501;DHT22;16450;50.288;10.966;2023-06-04T03:26:49;10.90;46.60
29501;DHT22;16450;50.288;10.966;2023-06-04T03:29:51;10.80;46.90
29501;DHT22;16450;50.288;10.966;2023-06-04T03:32:53;10.80;47.00
29501;DHT22;16450;50.288;10.966;2023-06-04T03:35:55;10.70;47.00
29501;DHT22;16450;50.288;10.966;2023-06-04T03:39:00;10.70;47.20
29501;DHT22;16450;50.288;10.966;2023-06-04T03:42:02;10.70;47.30
29501;DHT22;16450;50.288;10.966;2023-06-04T03:45:05;10.70;47.40
29501;DHT22;16450;50.288;10.966;2023-06-04T03:48:07;10.60;47.60
29501;DHT22;16450;50.288;10.966;2023-06-04T03:51:11;10.60;47.70
29501;DHT22;16450;50.288;10.966;2023-06-04T03:54:16;10.60;48.00
29501;DHT22;16450;50.288;10.966;2023-06-04T03:57:18;10.60;48.10
29501;DHT22;16450;50.288;10.966;2023-06-04T04:00:20;10.60;48.20
29501;DHT22;16450;50.288;10.966;2023-06-04T04:03:23;10.60;48.40
29501;DHT22;16450;50.288;10.966;2023-06-04T04:06:25;10.60;48.50
29501;DHT22;16450;50.288;10.966;2023-06-04T04:09:27;10.60;48.60
29501;DHT22;16450;50.288;10.966;2023-06-04T04:12:29;10.60;48.70
29501;DHT22;16450;50.288;10.966;2023-06-04T04:15:31;10.70;48.90
29501;DHT22;16450;50.288;10.966;2023-06-04T04:18:34;10.70;48.80
29501;DHT22;16450;50.288;10.966;2023-06-04T04:21:36;10.70;48.80
29501;DHT22;16450;50.288;10.966;2023-06-04T04:24:39;10.70;49.00
29501;DHT22;16450;50.288;10.966;2023-06-04T04:27:42;10.70;49.20
29501;DHT22;16450;50.288;10.966;2023-06-04T04:30:45;10.80;49.40
29501;DHT22;16450;50.288;10.966;2023-06-04T04:33:48;10.80;49.60
29501;DHT22;16450;50.288;10.966;2023-06-04T04:36:53;10.90;49.70
29501;DHT22;16450;50.288;10.966;2023-06-04T04:39:55;10.90;49.90
29501;DHT22;16450;50.288;10.966;2023-06-04T04:42:58;10.90;50.00
29501;DHT22;16450;50.288;10.966;2023-06-04T04:46:01;11.00;50.30
29501;DHT22;16450;50.288;10.966;2023-06-04T04:49:03;11.00;50.30
29501;DHT22;16450;50.288;10.966;2023-06-04T04:52:05;11.10;50.20
29501;DHT22;16450;50.288;10.966;2023-06-04T04:55:08;11.20;50.60
29501;DHT22;16450;50.288;10.966;2023-06-04T04:58:10;11.30;50.80
29501;DHT22;16450;50.288;10.966;2023-06-04T05:01:12;11.50;51.20
29501;DHT22;16450;50.288;10.966;2023-06-04T05:04:15;11.70;52.50
29501;DHT22;16450;50.288;10.966;2023-06-04T05:07:17;12.30;54.10
29501;DHT22;16450;50.288;10.966;2023-06-04T05:10:21;13.00;55.00
29501;DHT22;16450;50.288;10.966;2023-06-04T05:13:23;13.80;55.70
29501;DHT22;16450;50.288;10.966;2023-06-04T05:16:26;14.70;56.00
29501;DHT22;16450;50.288;10.966;2023-06-04T05:19:29;15.60;55.60
29501;DHT22;16450;50.288;10.966;2023-06-04T05:22:34;16.50;55.20
29501;DHT22;16450;50.288;10.966;2023-06-04T05:25:38;17.40;54.80
29501;DHT22;16450;50.288;10.966;2023-06-04T05:28:40;18.20;53.70
29501;DHT22;16450;50.288;10.966;2023-06-04T05:31:45;18.80;52.70
29501;DHT22;16450;50.288;10.966;2023-06-04T05:34:47;19.50;51.90
29501;DHT22;16450;50.288;10.966;2023-06-04T05:37:49;20.10;50.90
29501;DHT22;16450;50.288;10.966;2023-06-04T05:40:56;20.60;50.00
29501;DHT22;16450;50.288;10.966;2023-06-04T05:43:58;21.10;49.20
29501;DHT22;16450;50.288;10.966;2023-06-04T05:47:00;21.50;48.30
29501;DHT22;16450;50.288;10.966;2023-06-04T05:50:03;22.00;47.70
29501;DHT22;16450;50.288;10.966;2023-06-04T05:53:05;22.40;47.30
29501;DHT22;16450;50.288;10.966;2023-06-04T05:56:07;22.70;46.40
29501;DHT22;16450;50.288;10.966;2023-06-04T05:59:10;23.10;45.60
29501;DHT22;16450;50.288;10.966;2023-06-04T06:02:12;23.30;44.80
29501;DHT22;16450;50.288;10.966;2023-06-04T06:05:15;23.60;44.60
29501;DHT22;16450;50.288;10.966;2023-06-04T06:08:17;23.90;44.40
29501;DHT22;16450;50.288;10.966;2023-06-04T06:11:19;24.20;43.70
29501;DHT22;16450;50.288;10.966;2023-06-04T06:14:22;24.50;43.40
29501;DHT22;16450;50.288;10.966;2023-06-04T06:17:25;24.80;42.60
29501;DHT22;16450;50.288;10.966;2023-06-04T06:20:28;25.00;42.20
29501;DHT22;16450;50.288;10.966;2023-06-04T06:23:30;25.20;41.70
29501;DHT22;16450;50.288;10.966;2023-06-04T06:26:33;25.40;41.10
29501;DHT22;16450;50.288;10.966;2023-06-04T06:29:36;25.50;40.60
29501;DHT22;16450;50.288;10.966;2023-06-04T06:32:38;25.60;39.50
29501;DHT22;16450;50.288;10.966;2023-06-04T06:35:40;25.60;38.50
29501;DHT22;16450;50.288;10.966;2023-06-04T06:38:42;25.40;37.70
29501;DHT22;16450;50.288;10.966;2023-06-04T06:41:45;25.00;37.50
29501;DHT22;16450;50.288;10.966;2023-06-04T06:44:47;24.60;37.40
29501;DHT22;16450;50.288;10.966;2023-06-04T06:47:49;24.10;37.40
29501;DHT22;16450;50.288;10.966;2023-06-04T06:50:52;23.80;38.00
29501;DHT22;16450;50.288;10.966;2023-06-04T06:53:54;23.70;38.00
29501;DHT22;16450;50.288;10.966;2023-06-04T06:56:56;23.70;38.40
29501;DHT22;16450;50.288;10.966;2023-06-04T06:59:59;23.80;38.30
29501;DHT22;16450;50.288;10.966;2023-06-04T07:03:02;23.90;37.90
29501;DHT22;16450;50.288;10.966;2023-06-04T07:06:06;24.10;37.60
29501;DHT22;16450;50.288;10.966;2023-06-04T07:09:08;24.30;37.20
29501;DHT22;16450;50.288;10.966;2023-06-04T07:12:11;24.40;37.40
29501;DHT22;16450;50.288;10.966;2023-06-04T07:15:13;24.70;37.10
29501;DHT22;16450;50.288;10.966;2023-06-04T07:18:15;24.90;36.30
29501;DHT22;16450;50.288;10.966;2023-06-04T07:21:17;25.00;35.80
29501;DHT22;16450;50.288;10.966;2023-06-04T07:24:22;25.20;35.70
29501;DHT22;16450;50.288;10.966;2023-06-04T07:27:25;25.40;35.70
29501;DHT22;16450;50.288;10.966;2023-06-04T07:30:31;25.50;35.70
29501;DHT22;16450;50.288;10.966;2023-06-04T07:33:33;25.60;35.40
29501;DHT22;16450;50.288;10.966;2023-06-04T07:36:35;25.80;34.90
29501;DHT22;16450;50.288;10.966;2023-06-04T07:39:39;25.90;35.00
29501;DHT22;16450;50.288;10.966;2023-06-04T07:42:42;26.00;34.60
29501;DHT22;16450;50.288;10.966;2023-06-04T07:45:45;26.10;34.20
29501;DHT22;16450;50.288;10.966;2023-06-04T07:48:49;26.30;34.10
29501;DHT22;16450;50.288;10.966;2023-06-04T07:51:52;26.40;34.10
29501;DHT22;16450;50.288;10.966;2023-06-04T07:54:54;26.50;33.70
29501;DHT22;16450;50.288;10.966;2023-06-04T07:57:56;26.60;33.20
29501;DHT22;16450;50.288;10.966;2023-06-04T08:00:58;26.70;33.00
29501;DHT22;16450;50.288;10.966;2023-06-04T08:04:00;26.80;32.60
29501;DHT22;16450;50.288;10.966;2023-06-04T08:07:03;26.90;32.90
29501;DHT22;16450;50.288;10.966;2023-06-04T08:10:06;27.00;32.70
29501;DHT22;16450;50.288;10.966;2023-06-04T08:13:08;27.00;32.50
29501;DHT22;16450;50.288;10.966;2023-06-04T08:16:11;27.00;32.20
29501;DHT22;16450;50.288;10.966;2023-06-04T08:19:14;27.10;32.30
29501;DHT22;16450;50.288;10.966;2023-06-04T08:22:18;27.10;31.50
29501;DHT22;16450;50.288;10.966;2023-06-04T08:25:20;27.10;31.80
29501;DHT22;16450;50.288;10.966;2023-06-04T08:28:25;27.00;31.30
29501;DHT22;16450;50.288;10.966;2023-06-04T08:31:28;27.00;31.10
29501;DHT22;16450;50.288;10.966;2023-06-04T08:34:34;27.00;31.00
29501;DHT22;16450;50.288;10.966;2023-06-04T08:37:37;26.90;30.90
29501;DHT22;16450;50.288;10.966;2023-06-04T08:40:39;26.90;31.30
29501;DHT22;16450;50.288;10.966;2023-06-04T08:43:42;26.90;30.80
29501;DHT22;16450;50.288;10.966;2023-06-04T08:46:51;26.90;30.70
29501;DHT22;16450;50.288;10.966;2023-06-04T08:49:59;26.90;30.20
29501;DHT22;16450;50.288;10.966;2023-06-04T08:53:04;26.90;30.40
29501;DHT22;16450;50.288;10.966;2023-06-04T08:56:16;26.90;31.00
29501;DHT22;16450;50.288;10.966;2023-06-04T08:59:19;26.90;31.00
29501;DHT22;16450;50.288;10.966;2023-06-04T09:02:22;27.00;31.20
29501;DHT22;16450;50.288;10.966;2023-06-04T09:05:24;27.00;31.30
29501;DHT22;16450;50.288;10.966;2023-06-04T09:08:31;27.10;30.80
29501;DHT22;16450;50.288;10.966;2023-06-04T09:11:43;27.20;30.90
29501;DHT22;16450;50.288;10.966;2023-06-04T09:14:50;27.30;30.70
29501;DHT22;16450;50.288;10.966;2023-06-04T09:17:55;27.30;31.20
29501;DHT22;16450;50.288;10.966;2023-06-04T09:21:04;27.30;31.00
29501;DHT22;16450;50.288;10.966;2023-06-04T09:24:10;27.30;30.50
29501;DHT22;16450;50.288;10.966;2023-06-04T09:27:13;27.30;30.40
29501;DHT22;16450;50.288;10.966;2023-06-04T09:30:19;27.30;30.10
29501;DHT22;16450;50.288;10.966;2023-06-04T09:33:21;27.30;30.40
29501;DHT22;16450;50.288;10.966;2023-06-04T09:36:30;27.20;30.10
29501;DHT22;16450;50.288;10.966;2023-06-04T09:39:41;27.20;29.90
29501;DHT22;16450;50.288;10.966;2023-06-04T09:42:47;27.10;29.70
29501;DHT22;16450;50.288;10.966;2023-06-04T09:46:10;27.10;29.90
29501;DHT22;16450;50.288;10.966;2023-06-04T09:49:13;27.00;29.10
29501;DHT22;16450;50.288;10.966;2023-06-04T09:52:17;27.00;29.60
29501;DHT22;16450;50.288;10.966;2023-06-04T09:55:19;26.90;29.90
29501;DHT22;16450;50.288;10.966;2023-06-04T09:58:27;26.80;30.10
29501;DHT22;16450;50.288;10.966;2023-06-04T10:01:29;26.70;30.30
29501;DHT22;16450;50.288;10.966;2023-06-04T10:04:32;26.70;30.80
29501;DHT22;16450;50.288;10.966;2023-06-04T10:07:37;26.70;30.00
29501;DHT22;16450;50.288;10.966;2023-06-04T10:10:41;26.70;30.20
29501;DHT22;16450;50.288;10.966;2023-06-04T10:14:05;26.70;30.00
29501;DHT22;16450;50.288;10.966;2023-06-04T10:17:11;26.70;29.80
29501;DHT22;16450;50.288;10.966;2023-06-04T10:20:14;26.70;29.70
29501;DHT22;16450;50.288;10.966;2023-06-04T10:23:16;26.60;29.70
29501;DHT22;16450;50.288;10.966;2023-06-04T10:26:20;26.50;29.20
29501;DHT22;16450;50.288;10.966;2023-06-04T10:29:25;26.40;29.20
29501;DHT22;16450;50.288;10.966;2023-06-04T10:32:31;26.30;29.50
29501;DHT22;16450;50.288;10.966;2023-06-04T10:35:34;26.30;29.80
29501;DHT22;16450;50.288;10.966;2023-06-04T10:38:45;26.20;29.90
29501;DHT22;16450;50.288;10.966;2023-06-04T10:42:03;26.20;30.60
29501;DHT22;16450;50.288;10.966;2023-06-04T10:45:07;26.20;30.80
29501;DHT22;16450;50.288;10.966;2023-06-04T10:48:11;26.20;31.00
29501;DHT22;16450;50.288;10.966;2023-06-04T10:51:15;26.20;31.10
29501;DHT22;16450;50.288;10.966;2023-06-04T10:54:25;26.30;30.90
29501;DHT22;16450;50.288;10.966;2023-06-04T10:57:27;26.30;30.40
29501;DHT22;16450;50.288;10.966;2023-06-04T11:00:40;26.30;30.30
29501;DHT22;16450;50.288;10.966;2023-06-04T11:03:43;26.30;29.80
29501;DHT22;16450;50.288;10.966;2023-06-04T11:06:46;26.30;30.00
29501;DHT22;16450;50.288;10.966;2023-06-04T11:09:49;26.30;30.50
29501;DHT22;16450;50.288;10.966;2023-06-04T11:12:51;26.30;30.40
29501;DHT22;16450;50.288;10.966;2023-06-04T11:15:53;26.30;30.50
29501;DHT22;16450;50.288;10.966;2023-06-04T11:18:57;26.30;30.00
29501;DHT22;16450;50.288;10.966;2023-06-04T11:22:01;26.30;30.10
29501;DHT22;16450;50.288;10.966;2023-06-04T11:25:04;26.20;30.20
29501;DHT22;16450;50.288;10.966;2023-06-04T11:28:08;26.20;30.40
29501;DHT22;16450;50.288;10.966;2023-06-04T11:31:10;26.20;30.20
29501;DHT22;16450;50.288;10.966;2023-06-04T11:34:23;26.20;30.30
29501;DHT22;16450;50.288;10.966;2023-06-04T11:37:28;26.30;30.10
29501;DHT22;16450;50.288;10.966;2023-06-04T11:40:32;26.30;30.60
29501;DHT22;16450;50.288;10.966;2023-06-04T11:43:34;26.30;29.90
29501;DHT22;16450;50.288;10.966;2023-06-04T11:46:44;26.30;30.00
29501;DHT22;16450;50.288;10.966;2023-06-04T11:49:54;26.30;29.90
29501;DHT22;16450;50.288;10.966;2023-06-04T11:52:58;26.40;29.90
29501;DHT22;16450;50.288;10.966;2023-06-04T11:56:02;26.40;30.00
29501;DHT22;16450;50.288;10.966;2023-06-04T11:59:04;26.40;30.00
29501;DHT22;16450;50.288;10.966;2023-06-04T12:02:08;26.40;30.00
29501;DHT22;16450;50.288;10.966;2023-06-04T12:05:14;26.40;29.60
29501;DHT22;16450;50.288;10.966;2023-06-04T12:08:17;26.40;29.30
29501;DHT22;16450;50.288;10.966;2023-06-04T12:11:33;26.40;29.20
29501;DHT22;16450;50.288;10.966;2023-06-04T12:14:35;26.30;29.10
29501;DHT22;16450;50.288;10.966;2023-06-04T12:17:37;26.30;29.20
29501;DHT22;16450;50.288;10.966;2023-06-04T12:20:50;26.30;29.20
29501;DHT22;16450;50.288;10.966;2023-06-04T12:24:13;26.30;29.20
29501;DHT22;16450;50.288;10.966;2023-06-04T12:27:15;26.20;29.00
29501;DHT22;16450;50.288;10.966;2023-06-04T12:30:17;26.30;28.80
29501;DHT22;16450;50.288;10.966;2023-06-04T12:33:19;26.30;29.00
29501;DHT22;16450;50.288;10.966;2023-06-04T12:36:21;26.20;29.20
29501;DHT22;16450;50.288;10.966;2023-06-04T12:39:23;26.30;29.00
29501;DHT22;16450;50.288;10.966;2023-06-04T12:42:25;26.30;29.10
29501;DHT22;16450;50.288;10.966;2023-06-04T12:45:29;26.30;29.40
29501;DHT22;16450;50.288;10.966;2023-06-04T12:48:31;26.40;29.40
29501;DHT22;16450;50.288;10.966;2023-06-04T12:51:38;26.50;29.30
29501;DHT22;16450;50.288;10.966;2023-06-04T12:54:41;26.60;29.40
29501;DHT22;16450;50.288;10.966;2023-06-04T12:57:44;26.60;29.10
29501;DHT22;16450;50.288;10.966;2023-06-04T13:00:47;26.70;29.60
29501;DHT22;16450;50.288;10.966;2023-06-04T13:03:49;26.80;29.30
29501;DHT22;16450;50.288;10.966;2023-06-04T13:06:51;26.90;29.00
29501;DHT22;16450;50.288;10.966;2023-06-04T13:10:01;26.90;29.40
29501;DHT22;16450;50.288;10.966;2023-06-04T13:13:03;27.00;29.30
29501;DHT22;16450;50.288;10.966;2023-06-04T13:16:05;27.00;29.10
29501;DHT22;16450;50.288;10.966;2023-06-04T13:19:08;27.00;29.00
29501;DHT22;16450;50.288;10.966;2023-06-04T13:22:10;27.10;29.00
29501;DHT22;16450;50.288;10.966;2023-06-04T13:25:13;27.10;28.60
29501;DHT22;16450;50.288;10.966;2023-06-04T13:28:15;27.10;28.80
29501;DHT22;16450;50.288;10.966;2023-06-04T13:31:19;27.10;28.60
29501;DHT22;16450;50.288;10.966;2023-06-04T13:34:21;27.10;28.80
29501;DHT22;16450;50.288;10.966;2023-06-04T13:37:29;27.10;28.70
29501;DHT22;16450;50.288;10.966;2023-06-04T13:40:31;27.20;28.90
29501;DHT22;16450;50.288;10.966;2023-06-04T13:43:33;27.20;28.90
29501;DHT22;16450;50.288;10.966;2023-06-04T13:46:37;27.30;28.80
29501;DHT22;16450;50.288;10.966;2023-06-04T13:49:40;27.30;28.80
29501;DHT22;16450;50.288;10.966;2023-06-04T13:52:42;27.40;29.00
29501;DHT22;16450;50.288;10.966;2023-06-04T13:55:44;27.40;28.70
29501;DHT22;16450;50.288;10.966;2023-06-04T13:58:46;27.50;28.60
29501;DHT22;16450;50.288;10.966;2023-06-04T14:01:48;27.50;28.50
29501;DHT22;16450;50.288;10.966;2023-06-04T14:04:53;27.50;28.20
29501;DHT22;16450;50.288;10.966;2023-06-04T14:07:55;27.50;28.30
29501;DHT22;16450;50.288;10.966;2023-06-04T14:11:00;27.50;28.20
29501;DHT22;16450;50.288;10.966;2023-06-04T14:14:02;27.40;28.20
29501;DHT22;16450;50.288;10.966;2023-06-04T14:17:09;27.40;28.20
29501;DHT22;16450;50.288;10.966;2023-06-04T14:20:11;27.40;28.30
29501;DHT22;16450;50.288;10.966;2023-06-04T14:23:14;27.40;28.60
29501;DHT22;16450;50.288;10.966;2023-06-04T14:26:17;27.40;28.20
29501;DHT22;16450;50.288;10.966;2023-06-04T14:29:19;27.30;28.10
29501;DHT22;16450;50.288;10.966;2023-06-04T14:32:21;27.40;28.20
29501;DHT22;16450;50.288;10.966;2023-06-04T14:35:24;27.30;28.10
29501;DHT22;16450;50.288;10.966;2023-06-04T14:38:26;27.30;27.70
29501;DHT22;16450;50.288;10.966;2023-06-04T14:41:27;27.30;28.00
29501;DHT22;16450;50.288;10.966;2023-06-04T14:44:29;27.30;27.70
29501;DHT22;16450;50.288;10.966;2023-06-04T14:47:32;27.30;27.90
29501;DHT22;16450;50.288;10.966;2023-06-04T14:50:35;27.30;27.70
29501;DHT22;16450;50.288;10.966;2023-06-04T14:53:37;27.30;27.90
29501;DHT22;16450;50.288;10.966;2023-06-04T14:56:41;27.30;27.90
29501;DHT22;16450;50.288;10.966;2023-06-04T14:59:43;27.30;28.10
29501;DHT22;16450;50.288;10.966;2023-06-04T15:02:45;27.30;27.70
29501;DHT22;16450;50.288;10.966;2023-06-04T15:05:47;27.30;27.80
29501;DHT22;16450;50.288;10.966;2023-06-04T15:08:49;27.40;28.10
29501;DHT22;16450;50.288;10.966;2023-06-04T15:11:51;27.30;28.00
29501;DHT22;16450;50.288;10.966;2023-06-04T15:14:55;27.30;28.10
29501;DHT22;16450;50.288;10.966;2023-06-04T15:17:57;27.30;27.90
29501;DHT22;16450;50.288;10.966;2023-06-04T15:20:59;27.30;28.00
29501;DHT22;16450;50.288;10.966;2023-06-04T15:24:02;27.30;28.00
29501;DHT22;16450;50.288;10.966;2023-06-04T15:27:04;27.20;27.90
29501;DHT22;16450;50.288;10.966;2023-06-04T15:30:07;27.10;27.90
29501;DHT22;16450;50.288;10.966;2023-06-04T15:33:09;27.10;27.80
29501;DHT22;16450;50.288;10.966;2023-06-04T15:36:12;27.10;28.00
29501;DHT22;16450;50.288;10.966;2023-06-04T15:39:14;27.00;27.80
29501;DHT22;16450;50.288;10.966;2023-06-04T15:42:17;26.90;27.80
29501;DHT22;16450;50.288;10.966;2023-06-04T15:45:19;26.90;27.90
29501;DHT22;16450;50.288;10.966;2023-06-04T15:48:26;26.80;27.80
29501;DHT22;16450;50.288;10.966;2023-06-04T15:51:31;26.80;27.90
29501;DHT22;16450;50.288;10.966;2023-06-04T15:54:33;26.60;28.10
29501;DHT22;16450;50.288;10.966;2023-06-04T15:57:47;26.60;28.30
29501;DHT22;16450;50.288;10.966;2023-06-04T16:00:49;26.60;28.20
29501;DHT22;16450;50.288;10.966;2023-06-04T16:03:52;26.60;28.00
29501;DHT22;16450;50.288;10.966;2023-06-04T16:06:54;26.60;28.10
29501;DHT22;16450;50.288;10.966;2023-06-04T16:10:00;26.60;28.00
29501;DHT22;16450;50.288;10.966;2023-06-04T16:13:01;26.50;27.80
29501;DHT22;16450;50.288;10.966;2023-06-04T16:16:04;26.50;27.90
29501;DHT22;16450;50.288;10.966;2023-06-04T16:19:06;26.50;28.10
29501;DHT22;16450;50.288;10.966;2023-06-04T16:22:08;26.50;28.10
29501;DHT22;16450;50.288;10.966;2023-06-04T16:25:10;26.40;28.20
29501;DHT22;16450;50.288;10.966;2023-06-04T16:28:12;26.40;28.10
29501;DHT22;16450;50.288;10.966;2023-06-04T16:31:14;26.30;27.80
29501;DHT22;16450;50.288;10.966;2023-06-04T16:34:17;26.30;27.70
29501;DHT22;16450;50.288;10.966;2023-06-04T16:37:19;26.20;27.70
29501;DHT22;16450;50.288;10.966;2023-06-04T16:40:21;26.10;27.70
29501;DHT22;16450;50.288;10.966;2023-06-04T16:43:24;26.00;27.90
29501;DHT22;16450;50.288;10.966;2023-06-04T16:46:26;26.00;27.80
29501;DHT22;16450;50.288;10.966;2023-06-04T16:49:29;25.90;27.90
29501;DHT22;16450;50.288;10.966;2023-06-04T16:52:31;25.90;28.30
29501;DHT22;16450;50.288;10.966;2023-06-04T16:55:34;25.90;28.30
29501;DHT22;16450;50.288;10.966;2023-06-04T16:58:39;25.80;28.20
29501;DHT22;16450;50.288;10.966;2023-06-04T17:01:41;25.80;28.40
29501;DHT22;16450;50.288;10.966;2023-06-04T17:04:43;25.80;28.20
29501;DHT22;16450;50.288;10.966;2023-06-04T17:07:45;25.80;28.10
29501;DHT22;16450;50.288;10.966;2023-06-04T17:10:47;25.70;28.20
29501;DHT22;16450;50.288;10.966;2023-06-04T17:13:50;25.70;28.20
29501;DHT22;16450;50.288;10.966;2023-06-04T17:16:53;25.60;28.00
29501;DHT22;16450;50.288;10.966;2023-06-04T17:19:56;25.50;28.20
29501;DHT22;16450;50.288;10.966;2023-06-04T17:22:58;25.50;28.30
29501;DHT22;16450;50.288;10.966;2023-06-04T17:26:04;25.40;28.60
29501;DHT22;16450;50.288;10.966;2023-06-04T17:29:08;25.40;28.70
29501;DHT22;16450;50.288;10.966;2023-06-04T17:32:11;25.30;28.50
29501;DHT22;16450;50.288;10.966;2023-06-04T17:35:16;25.30;28.50
29501;DHT22;16450;50.288;10.966;2023-06-04T17:38:18;25.20;28.60
29501;DHT22;16450;50.288;10.966;2023-06-04T17:41:20;25.10;28.60
29501;DHT22;16450;50.288;10.966;2023-06-04T17:44:27;25.10;28.70
29501;DHT22;16450;50.288;10.966;2023-06-04T17:47:30;25.00;28.70
29501;DHT22;16450;50.288;10.966;2023-06-04T17:50:32;24.90;28.90
29501;DHT22;16450;50.288;10.966;2023-06-04T17:53:34;24.90;28.80
29501;DHT22;16450;50.288;10.966;2023-06-04T17:56:39;24.80;28.80
29501;DHT22;16450;50.288;10.966;2023-06-04T17:59:41;24.70;29.00
29501;DHT22;16450;50.288;10.966;2023-06-04T18:02:45;24.60;29.00
29501;DHT22;16450;50.288;10.966;2023-06-04T18:05:47;24.60;29.00
29501;DHT22;16450;50.288;10.966;2023-06-04T18:08:49;24.50;28.80
29501;DHT22;16450;50.288;10.966;2023-06-04T18:11:51;24.30;28.80
29501;DHT22;16450;50.288;10.966;2023-06-04T18:14:53;24.20;28.90
29501;DHT22;16450;50.288;10.966;2023-06-04T18:17:55;24.10;29.00
29501;DHT22;16450;50.288;10.966;2023-06-04T18:20:58;24.00;29.10
29501;DHT22;16450;50.288;10.966;2023-06-04T18:24:00;23.90;29.20
29501;DHT22;16450;50.288;10.966;2023-06-04T18:27:03;23.70;29.20
29501;DHT22;16450;50.288;10.966;2023-06-04T18:30:06;23.60;29.30
29501;DHT22;16450;50.288;10.966;2023-06-04T18:33:08;23.50;29.50
29501;DHT22;16450;50.288;10.966;2023-06-04T18:36:10;23.50;29.50
29501;DHT22;16450;50.288;10.966;2023-06-04T18:39:12;23.40;29.60
29501;DHT22;16450;50.288;10.966;2023-06-04T18:42:14;23.30;29.90
29501;DHT22;16450;50.288;10.966;2023-06-04T18:45:31;23.20;29.80
29501;DHT22;16450;50.288;10.966;2023-06-04T18:48:32;23.10;29.80
29501;DHT22;16450;50.288;10.966;2023-06-04T18:51:34;23.00;29.80
29501;DHT22;16450;50.288;10.966;2023-06-04T18:54:38;22.90;29.80
29501;DHT22;16450;50.288;10.966;2023-06-04T18:57:40;22.80;29.80
29501;DHT22;16450;50.288;10.966;2023-06-04T19:00:42;22.70;30.00